createdAt,value
2023-03-06T00:01:21.427Z,18.30
2023-03-06T00:03:29.814Z,18.63
2023-03-06T00:05:38.008Z,17.40
2023-03-06T00:07:46.516Z,17.38
2023-03-06T00:09:57.123Z,18.10
2023-03-06T00:12:05.023Z,18.30
2023-03-06T00:14:12.951Z,18.25
2023-03-06T00:16:20.840Z,17.20
2023-03-06T00:18:28.722Z,17.50
2023-03-06T00:20:37.828Z,19.20
2023-03-06T00:22:46.095Z,18.50
2023-03-06T00:24:56.961Z,18.10
2023-03-06T00:27:21.676Z,18.27
2023-03-06T00:29:33.341Z,19.58
2023-03-06T00:31:41.216Z,19.95
2023-03-06T00:33:49.609Z,18.85
2023-03-06T00:35:59.067Z,19.88
2023-03-06T00:38:06.971Z,21.33
2023-03-06T00:40:19.857Z,19.38
2023-03-06T00:42:28.388Z,22.25
2023-03-06T00:44:36.539Z,21.10
2023-03-06T00:46:44.559Z,22.33
2023-03-06T00:48:52.251Z,23.27
2023-03-06T00:51:02.196Z,21.92
2023-03-06T00:53:11.193Z,22.85
2023-03-06T00:55:21.993Z,22.95
2023-03-06T00:57:29.908Z,22.60
2023-03-06T00:59:38.818Z,22.40
2023-03-06T01:01:46.918Z,22.40
2023-03-06T01:03:54.921Z,21.45
2023-03-06T01:06:02.765Z,22.23
2023-03-06T01:08:11.195Z,21.75
2023-03-06T01:10:22.286Z,21.60
2023-03-06T01:12:30.165Z,20.08
2023-03-06T01:14:38.580Z,20.70
2023-03-06T01:16:46.736Z,20.30
2023-03-06T01:18:54.709Z,20.90
2023-03-06T01:21:04.497Z,21.77
2023-03-06T01:23:12.357Z,21.20
2023-03-06T01:25:23.082Z,20.63
2023-03-06T01:27:32.132Z,20.98
2023-03-06T01:29:39.958Z,22.80
2023-03-06T01:31:47.854Z,22.92
2023-03-06T01:33:55.999Z,23.05
2023-03-06T01:36:07.416Z,21.40
2023-03-06T01:38:15.590Z,21.00
2023-03-06T01:40:26.025Z,20.80
2023-03-06T01:42:34.184Z,21.55
2023-03-06T01:45:03.662Z,19.15
2023-03-06T01:47:11.806Z,19.77
2023-03-06T01:49:22.962Z,19.90
2023-03-06T01:51:35.208Z,20.45
2023-03-06T01:53:46.239Z,20.75
2023-03-06T01:55:57.312Z,21.40
2023-03-06T01:58:10.244Z,21.73
2023-03-06T02:00:21.401Z,20.90
2023-03-06T02:02:29.613Z,22.58
2023-03-06T02:04:39.705Z,21.83
2023-03-06T02:06:48.306Z,21.20
2023-03-06T02:08:57.060Z,21.80
2023-03-06T02:11:15.159Z,20.17
2023-03-06T02:13:23.144Z,21.80
2023-03-06T02:15:34.100Z,21.63
2023-03-06T02:17:42.357Z,22.88
2023-03-06T02:19:59.354Z,23.73
2023-03-06T02:22:10.109Z,24.45
2023-03-06T02:24:35.345Z,20.70
2023-03-06T02:26:48.072Z,23.27
2023-03-06T02:28:58.540Z,19.52
2023-03-06T02:31:06.763Z,23.00
2023-03-06T02:33:16.635Z,20.63
2023-03-06T02:35:26.841Z,20.35
2023-03-06T02:37:34.739Z,20.75
2023-03-06T02:39:46.444Z,20.80
2023-03-06T02:41:57.486Z,19.10
2023-03-06T02:44:06.042Z,19.08
2023-03-06T02:46:14.489Z,19.30
2023-03-06T02:48:22.930Z,20.42
2023-03-06T02:50:33.775Z,21.90
2023-03-06T02:52:43.814Z,19.23
2023-03-06T02:54:52.202Z,19.75
2023-03-06T02:57:02.718Z,18.92
2023-03-06T02:59:12.396Z,18.10
2023-03-06T03:01:21.083Z,18.13
2023-03-06T03:03:29.396Z,18.67
2023-03-06T03:05:39.017Z,18.05
2023-03-06T03:07:54.365Z,19.02
2023-03-06T03:10:02.088Z,19.90
2023-03-06T03:12:13.953Z,19.27
2023-03-06T03:14:21.904Z,19.63
2023-03-06T03:16:30.218Z,20.20
2023-03-06T03:18:40.191Z,20.45
2023-03-06T03:20:48.052Z,17.13
2023-03-06T03:22:57.899Z,18.60
2023-03-06T03:25:06.554Z,19.73
2023-03-06T03:27:17.583Z,19.25
2023-03-06T03:29:27.954Z,19.48
2023-03-06T03:31:36.297Z,19.85
2023-03-06T03:33:44.911Z,19.30
2023-03-06T03:35:59.819Z,19.75
2023-03-06T03:38:08.438Z,18.65
2023-03-06T03:40:16.825Z,18.23
2023-03-06T03:42:27.625Z,18.92
2023-03-06T03:44:35.846Z,18.88
2023-03-06T03:46:44.173Z,18.67
2023-03-06T03:48:57.189Z,19.05
2023-03-06T03:51:08.997Z,18.25
2023-03-06T03:53:20.274Z,18.30
2023-03-06T03:55:29.147Z,19.70
2023-03-06T03:57:40.248Z,17.98
2023-03-06T03:59:51.238Z,18.55
2023-03-06T04:02:21.966Z,16.90
2023-03-06T04:04:41.504Z,17.42
2023-03-06T04:06:51.252Z,16.50
2023-03-06T04:09:00.568Z,18.58
2023-03-06T04:11:09.247Z,17.27
2023-03-06T04:13:21.096Z,17.23
2023-03-06T04:15:29.691Z,17.90
2023-03-06T04:17:38.297Z,18.25
2023-03-06T04:19:49.140Z,17.67
2023-03-06T04:21:58.268Z,15.98
2023-03-06T04:24:06.550Z,15.90
2023-03-06T04:26:14.509Z,16.52
2023-03-06T04:28:25.499Z,15.48
2023-03-06T04:30:33.988Z,17.33
2023-03-06T04:32:42.575Z,16.63
2023-03-06T04:34:50.987Z,16.58
2023-03-06T04:36:58.807Z,16.70
2023-03-06T04:39:07.818Z,15.93
2023-03-06T04:41:16.297Z,15.48
2023-03-06T04:43:27.238Z,15.88
2023-03-06T04:45:36.934Z,18.05
2023-03-06T04:47:45.491Z,19.98
2023-03-06T04:49:53.345Z,19.25
2023-03-06T04:52:01.491Z,19.40
2023-03-06T04:54:09.516Z,20.77
2023-03-06T04:56:17.421Z,19.48
2023-03-06T04:58:28.112Z,20.55
2023-03-06T05:00:36.291Z,18.48
2023-03-06T05:02:45.716Z,18.58
2023-03-06T05:04:53.622Z,17.25
2023-03-06T05:07:01.503Z,17.80
2023-03-06T05:09:09.578Z,16.95
2023-03-06T05:11:17.587Z,17.92
2023-03-06T05:13:28.854Z,17.15
2023-03-06T05:15:36.791Z,17.10
2023-03-06T05:17:44.854Z,18.70
2023-03-06T05:19:52.659Z,17.75
2023-03-06T05:22:00.822Z,16.25
2023-03-06T05:24:09.397Z,18.27
2023-03-06T05:26:18.284Z,16.42
2023-03-06T05:28:29.696Z,16.30
2023-03-06T05:30:37.940Z,16.90
2023-03-06T05:32:45.943Z,18.27
2023-03-06T05:34:53.724Z,17.00
2023-03-06T05:37:01.960Z,16.80
2023-03-06T05:39:09.757Z,16.35
2023-03-06T05:41:18.153Z,14.63
2023-03-06T05:43:28.984Z,15.73
2023-03-06T05:45:37.011Z,14.20
2023-03-06T05:47:45.136Z,14.60
2023-03-06T05:49:53.226Z,14.98
2023-03-06T05:52:01.184Z,15.05
2023-03-06T05:54:09.567Z,14.60
2023-03-06T05:56:17.536Z,15.07
2023-03-06T05:58:28.159Z,14.30
2023-03-06T06:00:35.977Z,14.05
2023-03-06T06:02:44.038Z,13.10
2023-03-06T06:04:52.056Z,13.68
2023-03-06T06:07:01.981Z,13.27
2023-03-06T06:09:12.280Z,12.82
2023-03-06T06:11:21.426Z,14.48
2023-03-06T06:13:35.347Z,13.30
2023-03-06T06:15:43.201Z,13.40
2023-03-06T06:17:51.170Z,12.00
2023-03-06T06:19:59.216Z,11.82
2023-03-06T06:22:07.868Z,11.38
2023-03-06T06:24:16.227Z,12.57
2023-03-06T06:26:24.024Z,12.65
2023-03-06T06:28:35.128Z,11.63
2023-03-06T06:30:43.393Z,11.70
2023-03-06T06:32:51.326Z,11.10
2023-03-06T06:34:59.599Z,13.68
2023-03-06T06:37:07.557Z,13.07
2023-03-06T06:39:18.974Z,13.88
2023-03-06T06:41:46.129Z,13.57
2023-03-06T06:43:59.075Z,14.40
2023-03-06T06:46:39.744Z,13.07
2023-03-06T06:48:37.834Z,14.30
2023-03-06T06:50:45.705Z,13.20
2023-03-06T06:52:53.614Z,13.07
2023-03-06T06:55:01.474Z,13.07
2023-03-06T06:57:09.603Z,12.95
2023-03-06T06:59:20.171Z,13.27
2023-03-06T07:01:28.569Z,14.18
2023-03-06T07:03:36.936Z,15.60
2023-03-06T07:05:44.705Z,16.15
2023-03-06T07:07:53.791Z,15.90
2023-03-06T07:10:01.692Z,14.25
2023-03-06T07:12:10.681Z,14.23
2023-03-06T07:14:21.718Z,14.02
2023-03-06T07:16:30.923Z,13.55
2023-03-06T07:18:38.713Z,13.63
2023-03-06T07:20:46.762Z,14.68
2023-03-06T07:22:54.704Z,13.45
2023-03-06T07:25:03.436Z,13.93
2023-03-06T07:27:11.373Z,13.02
2023-03-06T07:29:22.183Z,12.25
2023-03-06T07:31:30.618Z,11.68
2023-03-06T07:33:38.570Z,13.75
2023-03-06T07:35:47.255Z,12.60
2023-03-06T07:37:56.134Z,12.20
2023-03-06T07:40:06.493Z,12.73
2023-03-06T07:42:15.658Z,13.35
2023-03-06T07:44:40.121Z,13.13
2023-03-06T07:46:47.989Z,12.90
2023-03-06T07:48:56.420Z,13.50
2023-03-06T07:51:05.774Z,15.30
2023-03-06T07:53:13.994Z,12.80
2023-03-06T07:55:22.134Z,13.57
2023-03-06T07:57:29.972Z,13.07
2023-03-06T07:59:40.418Z,13.23
2023-03-06T08:01:48.591Z,13.35
2023-03-06T08:03:56.980Z,12.95
2023-03-06T08:06:10.066Z,12.48
2023-03-06T08:08:17.957Z,12.27
2023-03-06T08:10:26.111Z,11.27
2023-03-06T08:12:33.957Z,13.27
2023-03-06T08:14:44.748Z,12.40
2023-03-06T08:16:52.942Z,14.63
2023-03-06T08:19:01.280Z,12.68
2023-03-06T08:21:11.711Z,12.82
2023-03-06T08:23:19.612Z,12.88
2023-03-06T08:25:27.644Z,12.93
2023-03-06T08:27:35.963Z,13.35
2023-03-06T08:29:46.543Z,13.90
2023-03-06T08:31:54.708Z,12.55
2023-03-06T08:34:05.131Z,11.60
2023-03-06T08:36:13.044Z,12.85
2023-03-06T08:38:20.907Z,12.88
2023-03-06T08:40:30.655Z,12.75
2023-03-06T08:42:38.855Z,12.15
2023-03-06T08:44:49.967Z,10.52
2023-03-06T08:46:57.788Z,10.88
2023-03-06T08:49:06.251Z,11.18
2023-03-06T08:51:15.476Z,11.05
2023-03-06T08:53:40.327Z,11.85
2023-03-06T08:55:50.655Z,10.35
2023-03-06T08:57:58.756Z,10.73
2023-03-06T09:00:11.260Z,9.95
2023-03-06T09:02:19.187Z,9.95
2023-03-06T09:04:27.268Z,9.88
2023-03-06T09:06:38.623Z,8.30
2023-03-06T09:08:46.440Z,8.23
2023-03-06T09:10:54.356Z,8.15
2023-03-06T09:13:02.570Z,8.68
2023-03-06T09:15:15.896Z,6.95
2023-03-06T09:17:24.132Z,7.32
2023-03-06T09:19:36.092Z,6.97
2023-03-06T09:21:43.975Z,6.90
2023-03-06T09:23:53.378Z,6.22
2023-03-06T09:26:05.225Z,6.45
2023-03-06T09:28:16.140Z,7.40
2023-03-06T09:30:26.817Z,6.35
2023-03-06T09:32:34.749Z,7.22
2023-03-06T09:34:42.963Z,7.75
2023-03-06T09:36:56.512Z,6.93
2023-03-06T09:39:05.271Z,6.95
2023-03-06T09:41:30.150Z,6.70
2023-03-06T09:43:40.979Z,6.82
2023-03-06T09:45:51.891Z,8.57
2023-03-06T09:48:05.624Z,7.80
2023-03-06T09:50:31.687Z,7.57
2023-03-06T09:52:47.520Z,7.45
2023-03-06T09:54:58.365Z,7.18
2023-03-06T09:57:06.626Z,7.20
2023-03-06T09:59:19.884Z,6.35
2023-03-06T10:01:35.016Z,6.07
2023-03-06T10:03:51.533Z,6.38
2023-03-06T10:06:04.435Z,6.97
2023-03-06T10:08:27.012Z,6.50
2023-03-06T10:10:45.840Z,7.10
2023-03-06T10:13:03.928Z,7.75
2023-03-06T10:15:18.809Z,6.78
2023-03-06T10:17:34.001Z,6.90
2023-03-06T10:19:42.541Z,6.80
2023-03-06T10:21:59.122Z,6.90
2023-03-06T10:24:19.852Z,6.28
2023-03-06T10:26:30.393Z,6.35
2023-03-06T10:28:42.349Z,6.45
2023-03-06T10:30:58.686Z,6.90
2023-03-06T10:33:12.653Z,6.65
2023-03-06T10:35:23.578Z,6.65
2023-03-06T10:37:32.696Z,6.82
2023-03-06T10:39:42.345Z,7.22
2023-03-06T10:41:51.615Z,7.15
2023-03-06T10:44:25.034Z,6.63
2023-03-06T10:46:36.238Z,6.97
2023-03-06T10:48:59.609Z,6.00
2023-03-06T10:51:19.571Z,6.93
2023-03-06T10:53:29.828Z,6.70
2023-03-06T10:55:39.519Z,6.47
2023-03-06T10:57:47.485Z,6.60
2023-03-06T10:59:57.268Z,6.50
2023-03-06T11:02:27.495Z,6.60
2023-03-06T11:04:39.429Z,5.82
2023-03-06T11:06:47.453Z,7.18
2023-03-06T11:08:55.361Z,6.40
2023-03-06T11:11:05.492Z,5.75
2023-03-06T11:13:24.345Z,7.20
2023-03-06T11:15:32.726Z,6.25
2023-03-06T11:17:50.453Z,6.40
2023-03-06T11:20:19.099Z,7.40
2023-03-06T11:22:27.443Z,6.15
2023-03-06T11:24:40.289Z,6.85
2023-03-06T11:26:52.502Z,7.20
2023-03-06T11:29:29.634Z,6.50
2023-03-06T11:31:41.403Z,6.70
2023-03-06T11:33:55.171Z,6.13
2023-03-06T11:36:07.643Z,6.30
2023-03-06T11:38:21.991Z,6.30
2023-03-06T11:40:35.100Z,7.00
2023-03-06T11:42:48.345Z,7.10
2023-03-06T11:45:15.672Z,6.40
2023-03-06T11:47:28.301Z,7.03
2023-03-06T11:49:43.448Z,7.30
2023-03-06T11:51:58.171Z,6.80
2023-03-06T11:54:06.402Z,6.13
2023-03-06T11:56:28.003Z,5.65
2023-03-06T11:58:47.053Z,6.97
2023-03-06T12:01:01.949Z,5.88
2023-03-06T12:03:35.893Z,6.97
2023-03-06T12:05:49.048Z,7.18
2023-03-06T12:08:09.970Z,6.05
2023-03-06T12:10:23.787Z,7.65
2023-03-06T12:13:04.172Z,7.82
2023-03-06T12:15:22.716Z,6.97
2023-03-06T12:17:42.947Z,6.68
2023-03-06T12:20:26.235Z,6.55
2023-03-06T12:22:53.412Z,6.75
2023-03-06T12:25:33.826Z,5.68
2023-03-06T12:27:48.599Z,5.70
2023-03-06T12:30:13.393Z,6.65
2023-03-06T12:32:35.500Z,7.15
2023-03-06T12:35:02.768Z,6.68
2023-03-06T12:37:23.266Z,7.22
2023-03-06T12:39:42.121Z,6.40
2023-03-06T12:42:22.954Z,6.07
2023-03-06T12:45:07.792Z,6.40
2023-03-06T12:47:22.389Z,6.88
2023-03-06T12:49:33.395Z,6.50
2023-03-06T12:51:42.072Z,6.63
2023-03-06T12:53:51.001Z,5.90
2023-03-06T12:56:00.803Z,6.95
2023-03-06T12:58:49.189Z,6.32
2023-03-06T13:01:07.820Z,6.35
2023-03-06T13:03:22.335Z,8.50
2023-03-06T13:05:55.291Z,7.32
2023-03-06T13:08:44.327Z,7.05
2023-03-06T13:11:18.761Z,6.97
2023-03-06T13:13:35.354Z,6.80
2023-03-06T13:15:49.541Z,6.43
2023-03-06T13:17:57.418Z,6.88
2023-03-06T13:20:30.080Z,6.50
2023-03-06T13:22:38.431Z,7.30
2023-03-06T13:24:46.696Z,7.35
2023-03-06T13:27:00.868Z,7.25
2023-03-06T13:29:43.633Z,6.55
2023-03-06T13:32:21.926Z,6.82
2023-03-06T13:34:39.880Z,6.70
2023-03-06T13:36:48.251Z,7.53
2023-03-06T13:39:08.756Z,7.20
2023-03-06T13:41:55.111Z,6.95
2023-03-06T13:44:23.845Z,7.25
2023-03-06T13:46:35.441Z,8.85
2023-03-06T13:48:47.068Z,9.30
2023-03-06T13:50:56.188Z,8.48
2023-03-06T13:53:30.093Z,6.95
2023-03-06T13:55:47.570Z,9.43
2023-03-06T13:58:11.881Z,12.45
2023-03-06T14:00:39.293Z,8.00
2023-03-06T14:03:04.426Z,8.27
2023-03-06T14:05:28.340Z,7.40
2023-03-06T14:07:41.615Z,7.15
2023-03-06T14:09:54.424Z,8.30
2023-03-06T14:12:10.454Z,7.10
2023-03-06T14:14:18.467Z,12.02
2023-03-06T14:16:37.591Z,12.52
2023-03-06T14:18:58.238Z,7.10
2023-03-06T14:21:17.507Z,7.43
2023-03-06T14:23:31.187Z,7.20
2023-03-06T14:25:39.708Z,7.38
2023-03-06T14:27:51.645Z,7.22
2023-03-06T14:30:09.065Z,8.98
2023-03-06T14:32:21.019Z,9.07
2023-03-06T14:34:31.614Z,8.13
2023-03-06T14:36:48.839Z,6.97
2023-03-06T14:39:00.104Z,6.57
2023-03-06T14:41:11.775Z,7.25
2023-03-06T14:43:27.316Z,6.70
2023-03-06T14:45:35.244Z,6.50
2023-03-06T14:47:43.219Z,6.22
2023-03-06T14:49:51.276Z,7.20
2023-03-06T14:52:04.172Z,8.07
2023-03-06T14:54:19.706Z,6.57
2023-03-06T14:56:30.198Z,6.50
2023-03-06T14:58:41.401Z,7.18
2023-03-06T15:00:54.685Z,7.30
2023-03-06T15:03:03.334Z,6.60
2023-03-06T15:05:22.620Z,6.97
2023-03-06T15:07:35.358Z,6.45
2023-03-06T15:09:47.528Z,7.10
2023-03-06T15:11:57.972Z,7.00
2023-03-06T15:14:06.806Z,6.20
2023-03-06T15:16:30.365Z,7.50
2023-03-06T15:18:39.765Z,6.97
2023-03-06T15:20:56.513Z,6.90
2023-03-06T15:23:16.372Z,6.53
2023-03-06T15:25:27.560Z,7.13
2023-03-06T15:27:35.865Z,7.10
2023-03-06T15:29:43.670Z,7.40
2023-03-06T15:31:51.906Z,7.55
2023-03-06T15:34:07.910Z,6.90
2023-03-06T15:36:27.694Z,7.43
2023-03-06T15:38:40.991Z,7.63
2023-03-06T15:40:58.508Z,7.47
2023-03-06T15:43:06.531Z,9.60
2023-03-06T15:45:20.031Z,9.18
2023-03-06T15:47:28.004Z,7.72
2023-03-06T15:49:35.725Z,7.85
2023-03-06T15:51:43.639Z,7.35
2023-03-06T15:53:59.789Z,7.90
2023-03-06T15:56:15.729Z,7.13
2023-03-06T15:58:26.932Z,7.05
2023-03-06T16:00:38.537Z,7.55
2023-03-06T16:02:47.305Z,8.98
2023-03-06T16:04:55.597Z,8.70
2023-03-06T16:07:03.460Z,8.45
2023-03-06T16:09:15.543Z,7.82
2023-03-06T16:11:35.437Z,7.55
2023-03-06T16:13:50.024Z,8.55
2023-03-06T16:15:58.068Z,7.43
2023-03-06T16:18:06.299Z,7.63
2023-03-06T16:20:18.292Z,8.30
2023-03-06T16:22:26.098Z,9.05
2023-03-06T16:24:37.307Z,8.48
2023-03-06T16:26:47.532Z,8.40
2023-03-06T16:28:55.476Z,9.05
2023-03-06T16:31:03.266Z,9.13
2023-03-06T16:33:12.928Z,8.82
2023-03-06T16:35:21.526Z,8.35
2023-03-06T16:37:29.472Z,7.53
2023-03-06T16:39:40.030Z,10.45
2023-03-06T16:41:49.492Z,10.32
2023-03-06T16:43:57.506Z,8.98
2023-03-06T16:46:08.079Z,8.80
2023-03-06T16:48:20.045Z,8.43
2023-03-06T16:50:30.334Z,10.13
2023-03-06T16:52:38.421Z,9.50
2023-03-06T16:54:48.826Z,9.45
2023-03-06T16:56:56.629Z,9.13
2023-03-06T16:59:04.711Z,8.25
2023-03-06T17:01:19.475Z,10.10
2023-03-06T17:03:27.384Z,8.95
2023-03-06T17:05:36.923Z,8.75
2023-03-06T17:07:44.698Z,9.00
2023-03-06T17:09:55.421Z,9.77
2023-03-06T17:12:03.365Z,9.68
2023-03-06T17:14:11.180Z,9.35
2023-03-06T17:16:19.583Z,9.63
2023-03-06T17:18:28.407Z,9.18
2023-03-06T17:20:36.409Z,9.02
2023-03-06T17:22:44.459Z,9.68
2023-03-06T17:24:55.186Z,9.00
2023-03-06T17:27:03.276Z,8.38
2023-03-06T17:29:12.231Z,8.85
2023-03-06T17:31:22.640Z,9.65
2023-03-06T17:33:30.671Z,10.20
2023-03-06T17:35:38.713Z,8.98
2023-03-06T17:37:46.578Z,16.67
2023-03-06T17:39:57.291Z,13.73
2023-03-06T17:42:05.598Z,12.65
2023-03-06T17:44:16.345Z,15.07
2023-03-06T17:46:24.546Z,23.98
2023-03-06T17:48:32.536Z,23.15
2023-03-06T17:50:40.683Z,13.95
2023-03-06T17:52:48.741Z,17.15
2023-03-06T17:54:59.453Z,16.60
2023-03-06T17:57:07.726Z,15.00
2023-03-06T17:59:16.013Z,13.48
2023-03-06T18:01:27.768Z,16.17
2023-03-06T18:03:38.219Z,18.92
2023-03-06T18:05:46.357Z,14.18
2023-03-06T18:07:54.659Z,22.17
2023-03-06T18:10:05.335Z,20.40
2023-03-06T18:12:13.269Z,20.38
2023-03-06T18:14:21.171Z,17.42
2023-03-06T18:16:30.071Z,16.92
2023-03-06T18:18:39.059Z,11.25
2023-03-06T18:20:47.421Z,12.27
2023-03-06T18:22:55.524Z,14.00
2023-03-06T18:25:06.379Z,11.32
2023-03-06T18:27:14.395Z,12.57
2023-03-06T18:29:22.234Z,13.45
2023-03-06T18:31:34.164Z,11.07
2023-03-06T18:33:42.431Z,12.40
2023-03-06T18:35:50.534Z,13.30
2023-03-06T18:37:58.657Z,13.68
2023-03-06T18:40:11.146Z,13.30
2023-03-06T18:42:19.065Z,14.00
2023-03-06T18:44:27.149Z,16.83
2023-03-06T18:46:36.989Z,14.77
2023-03-06T18:48:45.089Z,13.05
2023-03-06T18:50:53.527Z,13.45
2023-03-06T18:53:01.364Z,11.57
2023-03-06T18:55:13.315Z,11.00
2023-03-06T18:57:21.197Z,11.07
2023-03-06T18:59:29.295Z,11.73
2023-03-06T19:01:37.862Z,11.23
2023-03-06T19:03:46.375Z,11.15
2023-03-06T19:05:54.534Z,11.60
2023-03-06T19:08:02.648Z,10.02
2023-03-06T19:10:15.456Z,13.43
2023-03-06T19:12:23.584Z,12.45
2023-03-06T19:14:31.648Z,12.48
2023-03-06T19:16:39.618Z,11.95
2023-03-06T19:18:47.779Z,12.48
2023-03-06T19:20:56.790Z,11.00
2023-03-06T19:23:05.146Z,11.35
2023-03-06T19:25:16.417Z,11.05
2023-03-06T19:27:24.486Z,13.32
2023-03-06T19:29:32.687Z,14.93
2023-03-06T19:31:40.901Z,13.18
2023-03-06T19:33:49.833Z,11.00
2023-03-06T19:35:58.286Z,12.10
2023-03-06T19:38:06.698Z,11.77
2023-03-06T19:40:19.692Z,11.50
2023-03-06T19:42:28.191Z,12.43
2023-03-06T19:44:36.261Z,12.30
2023-03-06T19:46:44.199Z,12.38
2023-03-06T19:48:56.604Z,11.93
2023-03-06T19:51:08.480Z,12.00
2023-03-06T19:53:17.006Z,12.05
2023-03-06T19:55:28.825Z,13.38
2023-03-06T19:57:36.878Z,12.05
2023-03-06T19:59:44.874Z,13.45
2023-03-06T20:01:53.071Z,12.00
2023-03-06T20:04:02.021Z,12.75
2023-03-06T20:06:15.666Z,12.07
2023-03-06T20:08:23.859Z,11.95
2023-03-06T20:10:34.758Z,11.93
2023-03-06T20:12:42.734Z,12.25
2023-03-06T20:14:51.125Z,11.95
2023-03-06T20:16:59.128Z,12.23
2023-03-06T20:19:08.863Z,13.13
2023-03-06T20:21:18.024Z,12.02
2023-03-06T20:23:25.895Z,12.98
2023-03-06T20:25:37.840Z,13.95
2023-03-06T20:27:45.700Z,13.13
2023-03-06T20:29:53.583Z,13.40
2023-03-06T20:32:01.909Z,12.70
2023-03-06T20:34:10.887Z,10.82
2023-03-06T20:36:20.779Z,11.10
2023-03-06T20:38:28.977Z,11.30
2023-03-06T20:40:55.581Z,11.48
2023-03-06T20:43:10.551Z,11.23
2023-03-06T20:45:18.445Z,11.60
2023-03-06T20:47:26.571Z,10.52
2023-03-06T20:49:36.833Z,12.02
2023-03-06T20:51:44.822Z,10.68
2023-03-06T20:53:55.282Z,11.63
2023-03-06T20:56:06.683Z,11.38
2023-03-06T20:58:14.843Z,12.57
2023-03-06T21:00:23.860Z,11.13
2023-03-06T21:02:31.822Z,11.57
2023-03-06T21:04:41.201Z,11.77
2023-03-06T21:06:49.959Z,12.70
2023-03-06T21:08:58.132Z,14.70
2023-03-06T21:11:08.989Z,12.95
2023-03-06T21:13:17.718Z,13.65
2023-03-06T21:15:30.135Z,11.90
2023-03-06T21:17:40.053Z,12.93
2023-03-06T21:19:48.792Z,12.20
2023-03-06T21:21:56.586Z,11.68
2023-03-06T21:24:05.259Z,12.15
2023-03-06T21:26:20.822Z,12.18
2023-03-06T21:28:28.688Z,11.35
2023-03-06T21:30:37.817Z,12.13
2023-03-06T21:32:45.812Z,11.80
2023-03-06T21:34:53.810Z,12.35
2023-03-06T21:37:02.203Z,12.38
2023-03-06T21:39:10.286Z,10.63
2023-03-06T21:41:24.358Z,10.45
2023-03-06T21:43:33.762Z,10.98
2023-03-06T21:45:46.290Z,10.40
2023-03-06T21:47:54.249Z,11.63
2023-03-06T21:50:03.942Z,12.20
2023-03-06T21:52:11.841Z,10.00
2023-03-06T21:54:20.202Z,12.02
2023-03-06T21:56:30.802Z,11.75
2023-03-06T21:58:39.806Z,12.13
2023-03-06T22:00:49.364Z,12.30
2023-03-06T22:02:57.570Z,12.18
2023-03-06T22:05:06.197Z,11.60
2023-03-06T22:07:14.140Z,12.52
2023-03-06T22:09:22.927Z,13.15
2023-03-06T22:11:37.115Z,12.98
2023-03-06T22:13:45.678Z,12.98
2023-03-06T22:15:55.361Z,13.68
2023-03-06T22:18:03.158Z,12.60
2023-03-06T22:20:13.250Z,13.50
2023-03-06T22:22:21.259Z,14.00
2023-03-06T22:24:29.064Z,12.13
2023-03-06T22:26:39.822Z,13.30
2023-03-06T22:28:47.844Z,13.90
2023-03-06T22:30:55.721Z,14.38
2023-03-06T22:33:03.646Z,13.18
2023-03-06T22:35:12.153Z,14.02
2023-03-06T22:37:19.941Z,13.45
2023-03-06T22:39:27.837Z,13.95
2023-03-06T22:41:35.786Z,13.65
2023-03-06T22:43:46.893Z,12.73
2023-03-06T22:45:54.815Z,11.90
2023-03-06T22:48:10.892Z,12.82
2023-03-06T22:50:19.786Z,12.27
2023-03-06T22:52:27.612Z,11.43
2023-03-06T22:54:35.508Z,12.88
2023-03-06T22:56:44.713Z,11.88
2023-03-06T22:58:55.396Z,12.35
2023-03-06T23:01:10.002Z,13.30
2023-03-06T23:03:18.087Z,12.23
2023-03-06T23:05:27.901Z,11.70
2023-03-06T23:07:37.238Z,13.27
2023-03-06T23:09:45.419Z,12.27
2023-03-06T23:12:12.165Z,12.57
2023-03-06T23:14:41.489Z,9.80
2023-03-06T23:17:08.316Z,12.48
2023-03-06T23:19:35.097Z,11.80
2023-03-06T23:22:01.802Z,11.75
2023-03-06T23:24:28.861Z,11.05
2023-03-06T23:26:37.478Z,10.20
2023-03-06T23:28:45.722Z,10.63
2023-03-06T23:30:56.366Z,11.38
2023-03-06T23:33:05.355Z,11.35
2023-03-06T23:35:13.980Z,11.70
2023-03-06T23:37:21.966Z,12.15
2023-03-06T23:39:30.497Z,11.55
2023-03-06T23:41:38.684Z,10.50
2023-03-06T23:43:47.512Z,10.02
2023-03-06T23:45:59.287Z,9.98
2023-03-06T23:48:08.974Z,10.85
2023-03-06T23:50:17.481Z,10.60
2023-03-06T23:52:25.460Z,9.80
2023-03-06T23:54:34.430Z,11.23
2023-03-06T23:56:42.569Z,9.73
2023-03-06T23:58:50.521Z,10.10
